Terminal Aerodrome Forecast
Issued by NWS Wilmington, OH

Current Version | Previous Version | Graphics & Text | Print | Product List | Glossary On
Versions: 1 2 3 4 5 6 7 8 9 10 11 12 13 14 15 16 17 18
000
FTUS41 KILN 011100 RRA
TAFDAY
TAF
KDAY 011142Z 0112/0212 18004KT 1 1/2SM -SN OVC015
      TEMPO 0112/0115 3/4SM -SN OVC008
     FM011600 23005KT 5SM -SN OVC015
     FM012000 26006KT 1 1/2SM -SN OVC012
      TEMPO 0120/0124 3/4SM -SN OVC008
     FM020200 29009KT P6SM OVC015=

USA.gov is the U.S. government's official web portal to all federal, state and local government web resources and services.